createdAt,value
2017-11-12T00:01:31.113Z,96530
2017-11-12T00:03:58.644Z,96525
2017-11-12T00:06:25.624Z,96536
2017-11-12T00:08:52.318Z,96537
2017-11-12T00:11:19.011Z,96530
2017-11-12T00:13:47.200Z,96543
2017-11-12T00:16:13.870Z,96551
2017-11-12T00:18:40.670Z,96540
2017-11-12T00:21:08.103Z,96530
2017-11-12T00:23:34.828Z,96536
2017-11-12T00:26:02.313Z,96530
2017-11-12T00:28:29.028Z,96526
2017-11-12T00:30:55.728Z,96534
2017-11-12T00:33:23.203Z,96533
2017-11-12T00:35:50.163Z,96538
2017-11-12T00:38:16.895Z,96540
2017-11-12T00:40:43.620Z,96536
2017-11-12T00:43:11.033Z,96530
2017-11-12T00:45:37.785Z,96541
2017-11-12T00:48:04.601Z,96545
2017-11-12T00:50:31.408Z,96542
2017-11-12T00:52:59.059Z,96547
2017-11-12T00:55:25.843Z,96548
2017-11-12T00:57:52.553Z,96542
2017-11-12T01:00:19.236Z,96537
2017-11-12T01:02:45.948Z,96521
2017-11-12T01:05:12.637Z,96530
2017-11-12T01:07:39.368Z,96542
2017-11-12T01:10:06.064Z,96552
2017-11-12T01:12:32.768Z,96535
2017-11-12T01:14:59.428Z,96533
2017-11-12T01:17:27.023Z,96531
2017-11-12T01:19:53.691Z,96521
2017-11-12T01:22:21.092Z,96516
2017-11-12T01:24:47.851Z,96521
2017-11-12T01:27:14.517Z,96527
2017-11-12T01:29:41.230Z,96520
2017-11-12T01:32:07.924Z,96514
2017-11-12T01:34:34.624Z,96512
2017-11-12T01:37:01.313Z,96510
2017-11-12T01:39:28.763Z,96512
2017-11-12T01:41:56.163Z,96518
2017-11-12T01:44:23.773Z,96513
2017-11-12T01:46:50.540Z,96512
2017-11-12T01:49:17.955Z,96508
2017-11-12T01:51:44.624Z,96499
2017-11-12T01:54:11.364Z,96501
2017-11-12T01:56:38.087Z,96492
2017-11-12T01:59:04.844Z,96488
2017-11-12T02:01:31.629Z,96484
2017-11-12T02:03:58.306Z,96480
2017-11-12T02:06:25.020Z,96484
2017-11-12T02:08:51.766Z,96483
2017-11-12T02:11:18.495Z,96492
2017-11-12T02:13:45.943Z,96495
2017-11-12T02:16:13.409Z,96494
2017-11-12T02:18:40.824Z,96483
2017-11-12T02:21:07.629Z,96492
2017-11-12T02:23:34.643Z,96496
2017-11-12T02:26:01.418Z,96492
2017-11-12T02:28:28.969Z,96494
2017-11-12T02:30:56.494Z,96496
2017-11-12T02:33:23.241Z,96495
2017-11-12T02:35:50.005Z,96489
2017-11-12T02:38:17.874Z,96480
2017-11-12T02:40:44.655Z,96481
2017-11-12T02:43:11.476Z,96482
2017-11-12T02:45:39.223Z,96489
2017-11-12T02:48:05.978Z,96492
2017-11-12T02:50:32.670Z,96496
2017-11-12T02:52:59.418Z,96488
2017-11-12T02:55:26.165Z,96493
2017-11-12T02:57:52.911Z,96495
2017-11-12T03:00:19.644Z,96494
2017-11-12T03:02:46.353Z,96500
2017-11-12T03:05:13.024Z,96495
2017-11-12T03:07:39.731Z,96505
2017-11-12T03:10:06.438Z,96505
2017-11-12T03:12:33.119Z,96510
2017-11-12T03:14:59.863Z,96507
2017-11-12T03:17:26.900Z,96508
2017-11-12T03:19:53.599Z,96504
2017-11-12T03:22:20.419Z,96504
2017-11-12T03:24:47.943Z,96510
2017-11-12T03:27:14.735Z,96504
2017-11-12T03:29:42.259Z,96501
2017-11-12T03:32:08.936Z,96516
2017-11-12T03:34:36.358Z,96508
2017-11-12T03:37:03.078Z,96503
2017-11-12T03:39:29.841Z,96498
2017-11-12T03:41:56.838Z,96493
2017-11-12T03:44:24.300Z,96489
2017-11-12T03:46:51.725Z,96497
2017-11-12T03:49:18.441Z,96505
2017-11-12T03:51:45.272Z,96507
2017-11-12T03:54:11.959Z,96512
2017-11-12T03:56:38.620Z,96508
2017-11-12T03:59:06.129Z,96507
2017-11-12T04:01:32.832Z,96499
2017-11-12T04:04:00.274Z,96508
2017-11-12T04:06:27.817Z,96511
2017-11-12T04:08:54.630Z,96504
2017-11-12T04:11:21.317Z,96506
2017-11-12T04:13:49.083Z,96502
2017-11-12T04:16:15.844Z,96504
2017-11-12T04:18:42.543Z,96505
2017-11-12T04:21:10.057Z,96500
2017-11-12T04:23:36.776Z,96488
2017-11-12T04:26:03.464Z,96485
2017-11-12T04:28:30.972Z,96494
2017-11-12T04:30:58.153Z,96490
2017-11-12T04:33:24.832Z,96494
2017-11-12T04:35:52.321Z,96509
2017-11-12T04:38:18.996Z,96500
2017-11-12T04:40:46.368Z,96500
2017-11-12T04:43:13.036Z,96501
2017-11-12T04:45:39.712Z,96506
2017-11-12T04:48:06.382Z,96499
2017-11-12T04:50:33.075Z,96491
2017-11-12T04:52:59.768Z,96490
2017-11-12T04:55:26.605Z,96495
2017-11-12T04:57:53.357Z,96505
2017-11-12T05:00:20.780Z,96502
2017-11-12T05:02:47.557Z,96498
2017-11-12T05:05:15.097Z,96501
2017-11-12T05:07:41.792Z,96491
2017-11-12T05:10:09.238Z,96491
2017-11-12T05:12:36.229Z,96486
2017-11-12T05:15:02.928Z,96497
2017-11-12T05:17:29.617Z,96498
2017-11-12T05:19:56.308Z,96505
2017-11-12T05:22:23.062Z,96498
2017-11-12T05:24:50.079Z,96495
2017-11-12T05:27:17.442Z,96490
2017-11-12T05:29:44.107Z,96496
2017-11-12T05:32:10.764Z,96500
2017-11-12T05:34:37.517Z,96502
2017-11-12T05:37:04.904Z,96515
2017-11-12T05:39:31.569Z,96517
2017-11-12T05:41:58.286Z,96518
2017-11-12T05:44:24.937Z,96518
2017-11-12T05:46:51.587Z,96522
2017-11-12T05:49:18.255Z,96521
2017-11-12T05:51:45.663Z,96524
2017-11-12T05:54:13.035Z,96512
2017-11-12T05:56:39.735Z,96517
2017-11-12T05:59:06.507Z,96512
2017-11-12T06:01:34.750Z,96508
2017-11-12T06:04:01.428Z,96508
2017-11-12T06:06:28.852Z,96502
2017-11-12T06:08:55.555Z,96519
2017-11-12T06:11:22.324Z,96521
2017-11-12T06:13:49.120Z,96510
2017-11-12T06:16:17.573Z,96512
2017-11-12T06:18:44.376Z,96510
2017-11-12T06:21:11.317Z,96508
2017-11-12T06:23:38.005Z,96517
2017-11-12T06:26:05.099Z,96530
2017-11-12T06:28:31.873Z,96517
2017-11-12T06:30:58.600Z,96508
2017-11-12T06:33:25.317Z,96503
2017-11-12T06:35:52.726Z,96499
2017-11-12T06:38:19.420Z,96505
2017-11-12T06:40:46.839Z,96502
2017-11-12T06:43:15.441Z,96499
2017-11-12T06:45:42.115Z,96517
2017-11-12T06:48:09.589Z,96516
2017-11-12T06:50:37.245Z,96525
2017-11-12T06:53:04.647Z,96534
2017-11-12T06:55:31.361Z,96521
2017-11-12T06:57:58.109Z,96532
2017-11-12T07:00:24.783Z,96527
2017-11-12T07:02:51.467Z,96512
2017-11-12T07:05:18.913Z,96503
2017-11-12T07:07:45.672Z,96503
2017-11-12T07:10:13.192Z,96511
2017-11-12T07:12:39.923Z,96512
2017-11-12T07:15:06.663Z,96513
2017-11-12T07:17:34.351Z,96518
2017-11-12T07:20:01.089Z,96534
2017-11-12T07:22:27.879Z,96543
2017-11-12T07:24:55.290Z,96549
2017-11-12T07:27:21.948Z,96529
2017-11-12T07:29:48.662Z,96513
2017-11-12T07:32:15.369Z,96509
2017-11-12T07:34:43.063Z,96503
2017-11-12T07:37:09.758Z,96515
2017-11-12T07:39:37.276Z,96533
2017-11-12T07:42:04.667Z,96543
2017-11-12T07:44:31.299Z,96539
2017-11-12T07:46:58.889Z,96540
2017-11-12T07:49:25.552Z,96532
2017-11-12T07:51:52.984Z,96526
2017-11-12T07:54:21.293Z,96531
2017-11-12T07:56:49.035Z,96539
2017-11-12T07:59:16.528Z,96547
2017-11-12T08:01:44.095Z,96534
2017-11-12T08:04:11.720Z,96534
2017-11-12T08:06:38.603Z,96527
2017-11-12T08:09:06.016Z,96528
2017-11-12T08:11:33.570Z,96536
2017-11-12T08:14:01.105Z,96547
2017-11-12T08:16:28.560Z,96551
2017-11-12T08:18:55.970Z,96558
2017-11-12T08:21:23.416Z,96555
2017-11-12T08:23:50.103Z,96545
2017-11-12T08:26:17.531Z,96550
2017-11-12T08:28:45.128Z,96538
2017-11-12T08:31:12.985Z,96525
2017-11-12T08:33:39.668Z,96528
2017-11-12T08:36:06.445Z,96524
2017-11-12T08:38:33.207Z,96529
2017-11-12T08:40:59.940Z,96522
2017-11-12T08:43:26.652Z,96532
2017-11-12T08:45:53.459Z,96545
2017-11-12T08:48:20.714Z,96557
2017-11-12T08:50:48.449Z,96552
2017-11-12T08:53:15.260Z,96565
2017-11-12T08:55:42.681Z,96578
2017-11-12T08:58:09.391Z,96587
2017-11-12T09:00:36.067Z,96577
2017-11-12T09:03:02.771Z,96583
2017-11-12T09:05:29.544Z,96585
2017-11-12T09:07:56.292Z,96585
2017-11-12T09:10:23.035Z,96584
2017-11-12T09:12:49.778Z,96575
2017-11-12T09:15:16.506Z,96576
2017-11-12T09:17:43.287Z,96580
2017-11-12T09:20:11.529Z,96575
2017-11-12T09:22:38.207Z,96574
2017-11-12T09:25:05.191Z,96581
2017-11-12T09:27:31.866Z,96584
2017-11-12T09:29:58.567Z,96575
2017-11-12T09:32:26.921Z,96567
2017-11-12T09:34:53.721Z,96555
2017-11-12T09:37:20.465Z,96547
2017-11-12T09:39:47.188Z,96538
2017-11-12T09:42:14.684Z,96528
2017-11-12T09:44:41.375Z,96518
2017-11-12T09:47:08.895Z,96501
2017-11-12T09:49:36.277Z,96482
2017-11-12T09:52:03.041Z,96478
2017-11-12T09:54:30.444Z,96481
2017-11-12T09:56:57.162Z,96494
2017-11-12T09:59:23.857Z,96501
2017-11-12T10:01:50.535Z,96508
2017-11-12T10:04:17.953Z,96512
2017-11-12T10:06:44.659Z,96511
2017-11-12T10:09:11.384Z,96517
2017-11-12T10:11:38.776Z,96519
2017-11-12T10:14:06.454Z,96510
2017-11-12T10:16:33.153Z,96511
2017-11-12T10:18:59.862Z,96509
2017-11-12T10:21:26.625Z,96491
2017-11-12T10:23:53.295Z,96479
2017-11-12T10:26:20.008Z,96477
2017-11-12T10:28:48.369Z,96459
2017-11-12T10:31:15.075Z,96435
2017-11-12T10:33:41.798Z,96417
2017-11-12T10:36:09.245Z,96420
2017-11-12T10:38:38.196Z,96428
2017-11-12T10:41:04.876Z,96445
2017-11-12T10:43:31.691Z,96456
2017-11-12T10:45:58.354Z,96455
2017-11-12T10:48:25.031Z,96450
2017-11-12T10:50:51.751Z,96456
2017-11-12T10:53:18.563Z,96455
2017-11-12T10:55:45.278Z,96438
2017-11-12T10:58:11.997Z,96430
2017-11-12T11:00:39.431Z,96429
2017-11-12T11:03:07.079Z,96429
2017-11-12T11:05:33.768Z,96428
2017-11-12T11:08:01.171Z,96427
2017-11-12T11:10:27.879Z,96438
2017-11-12T11:12:55.322Z,96425
2017-11-12T11:15:22.013Z,96427
2017-11-12T11:17:48.747Z,96434
2017-11-12T11:20:16.370Z,96432
2017-11-12T11:22:43.020Z,96425
2017-11-12T11:25:10.447Z,96417
2017-11-12T11:27:37.219Z,96402
2017-11-12T11:30:03.982Z,96393
2017-11-12T11:32:31.415Z,96395
2017-11-12T11:34:58.168Z,96381
2017-11-12T11:37:24.843Z,96380
2017-11-12T11:39:51.515Z,96369
2017-11-12T11:42:19.155Z,96363
2017-11-12T11:44:45.843Z,96354
2017-11-12T11:47:12.506Z,96356
2017-11-12T11:49:39.328Z,96345
2017-11-12T11:52:06.021Z,96343
2017-11-12T11:54:32.741Z,96335
2017-11-12T11:57:00.223Z,96327
2017-11-12T11:59:27.804Z,96319
2017-11-12T12:01:54.545Z,96316
2017-11-12T12:04:21.272Z,96308
2017-11-12T12:06:48.671Z,96301
2017-11-12T12:09:15.484Z,96290
2017-11-12T12:11:42.939Z,96282
2017-11-12T12:14:10.444Z,96279
2017-11-12T12:16:37.200Z,96273
2017-11-12T12:19:03.937Z,96262
2017-11-12T12:21:30.671Z,96254
2017-11-12T12:23:57.343Z,96240
2017-11-12T12:26:24.033Z,96237
2017-11-12T12:28:50.723Z,96231
2017-11-12T12:31:17.379Z,96238
2017-11-12T12:33:44.240Z,96239
2017-11-12T12:36:11.688Z,96238
2017-11-12T12:38:38.378Z,96242
2017-11-12T12:41:05.077Z,96239
2017-11-12T12:43:31.839Z,96226
2017-11-12T12:46:00.960Z,96222
2017-11-12T12:48:28.059Z,96211
2017-11-12T12:50:55.134Z,96205
2017-11-12T12:53:21.946Z,96200
2017-11-12T12:55:48.866Z,96201
2017-11-12T12:58:15.916Z,96200
2017-11-12T13:00:43.528Z,96203
2017-11-12T13:03:10.284Z,96202
2017-11-12T13:05:38.589Z,96202
2017-11-12T13:08:06.238Z,96189
2017-11-12T13:10:33.111Z,96178
2017-11-12T13:12:59.822Z,96170
2017-11-12T13:15:27.337Z,96168
2017-11-12T13:17:54.148Z,96173
2017-11-12T13:20:21.615Z,96169
2017-11-12T13:22:49.068Z,96156
2017-11-12T13:25:17.544Z,96159
2017-11-12T13:27:45.337Z,96152
2017-11-12T13:30:12.095Z,96153
2017-11-12T13:32:38.875Z,96153
2017-11-12T13:35:05.667Z,96154
2017-11-12T13:37:32.491Z,96141
2017-11-12T13:40:00.016Z,96140
2017-11-12T13:42:26.761Z,96137
2017-11-12T13:44:53.472Z,96137
2017-11-12T13:47:20.289Z,96142
2017-11-12T13:49:46.973Z,96141
2017-11-12T13:52:14.953Z,96136
2017-11-12T13:54:42.027Z,96124
2017-11-12T13:57:08.727Z,96110
2017-11-12T13:59:36.354Z,96103
2017-11-12T14:02:03.069Z,96086
2017-11-12T14:04:30.554Z,96083
2017-11-12T14:06:57.312Z,96081
2017-11-12T14:09:24.837Z,96073
2017-11-12T14:11:51.688Z,96065
2017-11-12T14:14:18.463Z,96070
2017-11-12T14:16:45.221Z,96065
2017-11-12T14:19:12.704Z,96067
2017-11-12T14:21:39.432Z,96060
2017-11-12T14:24:06.298Z,96060
2017-11-12T14:26:33.108Z,96057
2017-11-12T14:28:59.819Z,96061
2017-11-12T14:31:26.608Z,96052
2017-11-12T14:33:54.016Z,96053
2017-11-12T14:36:20.677Z,96047
2017-11-12T14:38:47.407Z,96045
2017-11-12T14:41:14.119Z,96044
2017-11-12T14:43:40.850Z,96034
2017-11-12T14:46:07.665Z,96016
2017-11-12T14:48:34.423Z,96012
2017-11-12T14:51:01.864Z,96024
2017-11-12T14:53:28.561Z,96042
2017-11-12T14:55:55.321Z,96032
2017-11-12T14:58:22.046Z,96011
2017-11-12T15:00:48.820Z,96028
2017-11-12T15:03:15.577Z,96023
2017-11-12T15:05:42.269Z,96024
2017-11-12T15:08:09.325Z,96015
2017-11-12T15:10:36.023Z,96005
2017-11-12T15:13:02.720Z,95990
2017-11-12T15:15:29.460Z,95996
2017-11-12T15:17:56.256Z,95993
2017-11-12T15:20:22.958Z,95986
2017-11-12T15:22:49.645Z,95982
2017-11-12T15:25:16.333Z,95966
2017-11-12T15:27:43.031Z,95953
2017-11-12T15:30:09.860Z,95950
2017-11-12T15:32:36.551Z,95946
2017-11-12T15:35:03.280Z,95942
2017-11-12T15:37:30.759Z,95935
2017-11-12T15:39:57.492Z,95927
2017-11-12T15:42:24.933Z,95919
2017-11-12T15:44:51.671Z,95927
2017-11-12T15:47:18.457Z,95920
2017-11-12T15:49:45.140Z,95915
2017-11-12T15:52:11.844Z,95914
2017-11-12T15:54:38.539Z,95898
2017-11-12T15:57:06.042Z,95886
2017-11-12T15:59:32.833Z,95882
2017-11-12T16:01:59.484Z,95876
2017-11-12T16:04:26.164Z,95870
2017-11-12T16:06:53.615Z,95871
2017-11-12T16:09:20.327Z,95872
2017-11-12T16:11:47.039Z,95880
2017-11-12T16:14:13.756Z,95874
2017-11-12T16:16:41.180Z,95855
2017-11-12T16:19:07.944Z,95859
2017-11-12T16:21:34.622Z,95857
2017-11-12T16:24:01.263Z,95860
2017-11-12T16:26:27.950Z,95854
2017-11-12T16:28:55.543Z,95853
2017-11-12T16:31:22.245Z,95858
2017-11-12T16:33:49.644Z,95846
2017-11-12T16:36:16.347Z,95854
2017-11-12T16:38:43.076Z,95850
2017-11-12T16:41:09.781Z,95844
2017-11-12T16:43:37.217Z,95837
2017-11-12T16:46:03.939Z,95827
2017-11-12T16:48:30.613Z,95821
2017-11-12T16:50:57.308Z,95812
2017-11-12T16:53:23.981Z,95810
2017-11-12T16:55:50.636Z,95814
2017-11-12T16:58:17.356Z,95804
2017-11-12T17:00:44.031Z,95801
2017-11-12T17:03:10.739Z,95790
2017-11-12T17:05:37.482Z,95782
2017-11-12T17:08:04.143Z,95781
2017-11-12T17:10:30.845Z,95783
2017-11-12T17:12:58.496Z,95785
2017-11-12T17:15:25.928Z,95781
2017-11-12T17:17:52.640Z,95779
2017-11-12T17:20:19.336Z,95770
2017-11-12T17:22:46.764Z,95776
2017-11-12T17:25:13.833Z,95772
2017-11-12T17:27:41.285Z,95770
2017-11-12T17:30:08.050Z,95759
2017-11-12T17:32:34.748Z,95753
2017-11-12T17:35:01.503Z,95754
2017-11-12T17:37:28.609Z,95748
2017-11-12T17:39:55.273Z,95738
2017-11-12T17:42:21.987Z,95731
2017-11-12T17:44:48.741Z,95714
2017-11-12T17:47:15.461Z,95702
2017-11-12T17:49:42.889Z,95706
2017-11-12T17:52:09.637Z,95711
2017-11-12T17:54:36.356Z,95694
2017-11-12T17:57:03.063Z,95689
2017-11-12T17:59:30.480Z,95678
2017-11-12T18:01:57.190Z,95681
2017-11-12T18:04:23.876Z,95689
2017-11-12T18:06:50.559Z,95694
2017-11-12T18:09:17.220Z,95692
2017-11-12T18:11:43.931Z,95682
2017-11-12T18:14:11.432Z,95672
2017-11-12T18:16:38.158Z,95665
2017-11-12T18:19:04.887Z,95666
2017-11-12T18:21:32.375Z,95666
2017-11-12T18:23:59.155Z,95659
2017-11-12T18:26:25.903Z,95649
2017-11-12T18:28:52.564Z,95645
2017-11-12T18:31:19.325Z,95637
2017-11-12T18:33:46.751Z,95639
2017-11-12T18:36:14.213Z,95640
2017-11-12T18:38:40.965Z,95627
2017-11-12T18:41:07.744Z,95636
2017-11-12T18:43:35.299Z,95635
2017-11-12T18:46:02.766Z,95639
2017-11-12T18:48:30.270Z,95636
2017-11-12T18:50:57.825Z,95640
2017-11-12T18:53:24.527Z,95635
2017-11-12T19:09:24.607Z,95603
2017-11-12T19:11:51.366Z,95605
2017-11-12T19:14:18.109Z,95606
2017-11-12T19:16:46.872Z,95605
2017-11-12T19:32:43.405Z,95597
2017-11-12T19:35:10.180Z,95599
2017-11-12T19:37:37.636Z,95592
2017-11-12T19:40:04.374Z,95611
2017-11-12T19:42:31.040Z,95612
2017-11-12T19:44:57.745Z,95613
2017-11-12T19:47:24.461Z,95614
2017-11-12T19:49:51.877Z,95617
2017-11-12T19:52:18.580Z,95614
2017-11-12T19:54:46.018Z,95624
2017-11-12T19:57:13.413Z,95617
2017-11-12T19:59:40.158Z,95622
2017-11-12T20:02:06.949Z,95620
2017-11-12T20:04:33.657Z,95620
2017-11-12T20:07:00.426Z,95625
2017-11-12T20:09:27.161Z,95619
2017-11-12T20:11:53.879Z,95622
2017-11-12T20:14:20.603Z,95608
2017-11-12T20:16:48.045Z,95628
2017-11-12T20:19:14.738Z,95624
2017-11-12T20:21:41.509Z,95618
2017-11-12T20:24:08.206Z,95617
2017-11-12T20:26:34.906Z,95615
2017-11-12T20:29:01.607Z,95607
2017-11-12T20:31:28.352Z,95612
2017-11-12T20:33:55.121Z,95604
2017-11-12T20:36:21.928Z,95606
2017-11-12T20:38:48.596Z,95598
2017-11-12T20:41:15.278Z,95599
2017-11-12T20:43:41.927Z,95610
2017-11-12T20:46:08.769Z,95612
2017-11-12T20:48:36.399Z,95612
2017-11-12T20:51:06.057Z,95625
2017-11-12T20:53:33.558Z,95617
2017-11-12T20:56:00.284Z,95606
2017-11-12T20:58:27.027Z,95609
2017-11-12T21:00:54.748Z,95605
2017-11-12T21:03:22.308Z,95604
2017-11-12T21:05:49.068Z,95605
2017-11-12T21:08:15.843Z,95606
2017-11-12T21:10:42.600Z,95611
2017-11-12T21:13:09.592Z,95616
2017-11-12T21:15:37.452Z,95615
2017-11-12T21:18:04.238Z,95617
2017-11-12T21:34:01.206Z,95606
2017-11-12T21:36:39.545Z,95605
2017-11-12T21:39:06.389Z,95590
2017-11-12T21:41:33.215Z,95591
2017-11-12T21:44:00.705Z,95600
2017-11-12T21:46:27.425Z,95617
2017-11-12T21:48:54.870Z,95636
2017-11-12T21:51:22.494Z,95627
2017-11-12T21:53:49.219Z,95616
2017-11-12T21:56:16.266Z,95619
2017-11-12T21:58:42.995Z,95624
2017-11-12T22:01:10.454Z,95624
2017-11-12T22:03:37.873Z,95636
2017-11-12T22:06:05.392Z,95633
2017-11-12T22:08:32.120Z,95627
2017-11-12T22:10:59.551Z,95617
2017-11-12T22:13:26.287Z,95618
2017-11-12T22:15:53.039Z,95624
2017-11-12T22:18:19.825Z,95632
2017-11-12T22:20:46.591Z,95628
2017-11-12T22:23:13.305Z,95627
2017-11-12T22:25:40.817Z,95629
2017-11-12T22:28:07.852Z,95621
2017-11-12T22:30:34.685Z,95619
2017-11-12T22:33:01.396Z,95604
2017-11-12T22:35:28.805Z,95585
2017-11-12T22:37:55.732Z,95571
2017-11-12T22:40:22.491Z,95544
2017-11-12T22:42:49.352Z,95525
2017-11-12T22:45:16.040Z,95541
2017-11-12T22:47:43.443Z,95563
2017-11-12T22:50:10.091Z,95562
2017-11-12T22:52:37.216Z,95542
2017-11-12T22:55:03.947Z,95535
2017-11-12T22:57:31.397Z,95542
2017-11-12T22:59:58.904Z,95559
2017-11-12T23:02:25.764Z,95558
2017-11-12T23:04:52.562Z,95553
2017-11-12T23:07:20.043Z,95558
2017-11-12T23:09:46.853Z,95554
2017-11-12T23:12:14.321Z,95565
2017-11-12T23:14:42.810Z,95574
2017-11-12T23:17:09.564Z,95598
2017-11-12T23:19:37.227Z,95612
2017-11-12T23:22:04.666Z,95613
2017-11-12T23:24:31.442Z,95614
2017-11-12T23:26:58.880Z,95637
2017-11-12T23:29:25.578Z,95638
2017-11-12T23:31:52.381Z,95646
2017-11-12T23:34:19.771Z,95657
2017-11-12T23:36:46.482Z,95654
2017-11-12T23:39:13.912Z,95658
2017-11-12T23:41:40.588Z,95663
2017-11-12T23:44:08.060Z,95665
2017-11-12T23:46:34.808Z,95669
2017-11-12T23:49:01.478Z,95668
2017-11-12T23:51:28.149Z,95667
2017-11-12T23:53:55.064Z,95678
2017-11-12T23:56:21.899Z,95693
2017-11-12T23:58:48.602Z,95706
